Time;durP1;ratioP1;P1;durP2;ratioP2;P2;SDS_P1;SDS_P2;PMS_P1;PMS_P2;Temp;Humidity;BMP_temperature;BMP_pressure;BME280_temperature;BME280_humidity;BME280_pressure;Samples;Min_cycle;Max_cycle;Signal;HPM_P1;HPM_P2
2023/12/19 00:01:48;;;;;;;32.92;20.05;;;;;;;2.22;100.00;102305.75;10507287;28;20497;-82
2023/12/19 00:06:48;;;;;;;32.97;19.38;;;;;;;2.20;100.00;102325.34;10503104;28;20040;-81
2023/12/19 00:11:49;;;;;;;31.70;18.13;;;;;;;2.21;100.00;102306.50;10500991;28;20039;-82
2023/12/19 00:16:50;;;;;;;36.78;19.88;;;;;;;2.24;100.00;102300.75;10481125;28;20067;-81
2023/12/19 00:21:51;;;;;;;36.73;18.77;;;;;;;2.25;100.00;102316.41;10484285;28;20040;-81
2023/12/19 00:26:51;;;;;;;40.55;20.83;;;;;;;2.28;100.00;102316.72;10491982;28;20123;-81
2023/12/19 00:31:52;;;;;;;35.05;18.52;;;;;;;2.30;100.00;102306.56;10504854;28;20419;-81
2023/12/19 00:36:53;;;;;;;35.10;18.75;;;;;;;2.31;100.00;102290.31;10496582;28;20068;-81
2023/12/19 00:41:53;;;;;;;40.30;19.02;;;;;;;2.35;100.00;102284.72;10492963;28;20479;-82
2023/12/19 00:46:54;;;;;;;38.30;19.25;;;;;;;2.46;100.00;102273.81;10498858;28;20486;-82
2023/12/19 00:51:54;;;;;;;47.17;21.08;;;;;;;2.48;100.00;102272.28;10505743;28;20119;-82
2023/12/19 00:56:55;;;;;;;36.72;18.65;;;;;;;2.58;100.00;102250.88;10476575;28;20456;-82
2023/12/19 01:01:56;;;;;;;39.60;21.02;;;;;;;2.62;100.00;102262.44;10506357;28;20032;-81
2023/12/19 01:06:56;;;;;;;36.70;22.73;;;;;;;2.68;100.00;102252.75;10476547;28;20051;-81
2023/12/19 01:11:58;;;;;;;40.63;22.40;;;;;;;2.77;100.00;102235.56;10509242;28;20037;-81
2023/12/19 01:16:59;;;;;;;31.70;20.13;;;;;;;2.83;100.00;102232.69;10490863;28;20071;-82
2023/12/19 01:21:59;;;;;;;35.88;19.27;;;;;;;2.81;100.00;102233.31;10494410;28;20506;-82
2023/12/19 01:27:00;;;;;;;32.70;17.50;;;;;;;2.83;100.00;102237.84;10492102;28;20050;-82
2023/12/19 01:32:00;;;;;;;31.02;19.10;;;;;;;2.85;100.00;102219.91;10506172;28;20124;-82
2023/12/19 01:37:01;;;;;;;29.73;19.45;;;;;;;2.92;100.00;102219.78;10519303;28;20040;-82
2023/12/19 01:42:02;;;;;;;43.22;23.23;;;;;;;2.87;100.00;102219.28;10513203;28;20413;-82
2023/12/19 01:47:03;;;;;;;34.63;23.05;;;;;;;2.90;100.00;102227.34;10509243;28;20055;-82
2023/12/19 01:52:04;;;;;;;37.80;21.02;;;;;;;2.89;100.00;102217.78;10496503;28;20119;-82
2023/12/19 01:57:04;;;;;;;42.00;20.85;;;;;;;2.91;100.00;102205.91;10507278;28;20551;-82
2023/12/19 02:02:05;;;;;;;45.33;24.27;;;;;;;2.92;100.00;102199.97;10459244;28;20045;-81
2023/12/19 02:07:05;;;;;;;46.05;26.77;;;;;;;2.90;100.00;102192.84;10450736;28;20127;-82
2023/12/19 02:12:06;;;;;;;48.72;23.13;;;;;;;2.92;100.00;102186.16;10515102;28;20138;-81
2023/12/19 02:17:06;;;;;;;53.20;23.98;;;;;;;2.98;100.00;102185.84;10504260;28;20059;-81
2023/12/19 02:22:07;;;;;;;43.60;24.75;;;;;;;3.00;100.00;102171.38;10502927;27;20401;-81
2023/12/19 02:27:08;;;;;;;40.10;21.10;;;;;;;3.01;100.00;102163.78;10504892;28;20071;-81
2023/12/19 02:32:08;;;;;;;43.72;23.48;;;;;;;3.03;100.00;102171.69;10486455;28;20479;-81
2023/12/19 02:37:09;;;;;;;43.20;22.33;;;;;;;3.06;100.00;102154.81;10499479;28;20052;-81
2023/12/19 02:42:09;;;;;;;49.03;25.77;;;;;;;3.08;100.00;102150.69;10501000;28;20032;-82
2023/12/19 02:47:10;;;;;;;42.92;22.67;;;;;;;3.15;100.00;102140.94;10490209;28;20056;-82
2023/12/19 02:52:10;;;;;;;43.42;25.60;;;;;;;3.17;100.00;102135.16;10501935;28;20044;-81
2023/12/19 02:57:11;;;;;;;46.65;25.23;;;;;;;3.19;100.00;102124.97;10504458;28;20135;-82
2023/12/19 03:02:11;;;;;;;44.42;24.45;;;;;;;3.22;100.00;102118.41;10467743;28;20518;-82
2023/12/19 03:07:12;;;;;;;43.85;25.58;;;;;;;3.24;100.00;102108.22;10494841;28;20049;-83
2023/12/19 03:12:12;;;;;;;32.08;19.55;;;;;;;3.28;100.00;102115.50;10488694;28;20033;-82
2023/12/19 03:17:13;;;;;;;40.47;23.45;;;;;;;3.32;100.00;102120.22;10489092;28;20119;-82
2023/12/19 03:22:13;;;;;;;38.08;22.13;;;;;;;3.33;100.00;102103.00;10508392;28;20040;-83
2023/12/19 03:27:14;;;;;;;42.97;20.10;;;;;;;3.36;100.00;102095.53;10495538;28;20245;-82
2023/12/19 03:32:14;;;;;;;37.50;20.17;;;;;;;3.37;100.00;102085.34;10490276;28;20119;-83
2023/12/19 03:37:15;;;;;;;39.92;19.73;;;;;;;3.33;100.00;102077.13;10497919;28;20047;-82
2023/12/19 03:42:15;;;;;;;29.23;17.55;;;;;;;3.26;100.00;102067.88;10506796;28;20476;-83
2023/12/19 03:47:16;;;;;;;29.23;17.50;;;;;;;3.27;100.00;102058.41;10483462;28;20124;-82
2023/12/19 03:52:17;;;;;;;32.45;17.63;;;;;;;3.27;100.00;102058.41;10424685;28;20056;-82
2023/12/19 03:57:17;;;;;;;31.77;17.67;;;;;;;3.25;100.00;102047.00;10461620;28;20041;-82
2023/12/19 04:02:18;;;;;;;31.33;16.77;;;;;;;3.26;100.00;102048.84;10450965;28;20072;-81
2023/12/19 04:07:18;;;;;;;34.22;17.80;;;;;;;3.27;100.00;102042.88;10490831;28;20039;-81
2023/12/19 04:12:19;;;;;;;24.02;14.18;;;;;;;3.33;100.00;102035.72;10499674;28;20029;-82
2023/12/19 04:17:19;;;;;;;23.75;15.00;;;;;;;3.33;100.00;102030.53;10505678;28;20114;-82
2023/12/19 04:22:20;;;;;;;27.83;16.13;;;;;;;3.41;100.00;102020.94;10484704;28;20106;-82
2023/12/19 04:27:21;;;;;;;31.90;16.27;;;;;;;3.46;100.00;102004.16;10500551;28;20119;-81
2023/12/19 04:32:21;;;;;;;30.65;16.27;;;;;;;3.52;100.00;102007.34;10431277;28;20156;-81
2023/12/19 04:37:22;;;;;;;35.22;20.02;;;;;;;3.54;100.00;101990.28;10398359;28;21814;-82
2023/12/19 04:42:23;;;;;;;33.17;17.63;;;;;;;3.59;100.00;101990.69;10387305;28;20102;-83
2023/12/19 04:47:23;;;;;;;33.92;20.33;;;;;;;3.62;100.00;101980.63;10423730;28;20052;-83
2023/12/19 04:52:24;;;;;;;29.35;15.85;;;;;;;3.68;100.00;101973.41;10515408;27;20502;-83
2023/12/19 04:57:25;;;;;;;32.38;17.90;;;;;;;3.69;100.00;101949.34;10508362;28;20131;-81
2023/12/19 05:02:25;;;;;;;29.77;16.17;;;;;;;3.76;100.00;101950.84;10470366;28;20058;-81
2023/12/19 05:07:26;;;;;;;21.25;13.18;;;;;;;3.78;100.00;101932.06;10465909;28;20083;-82
2023/12/19 05:12:27;;;;;;;27.13;17.00;;;;;;;3.81;100.00;101918.50;10491176;28;20039;-82
2023/12/19 05:17:27;;;;;;;24.10;14.98;;;;;;;3.88;100.00;101901.84;10460188;28;20449;-82
2023/12/19 05:22:28;;;;;;;25.40;15.73;;;;;;;3.92;100.00;101901.34;10468639;28;20126;-81
2023/12/19 05:27:29;;;;;;;24.65;15.10;;;;;;;3.97;100.00;101882.88;10494030;28;20515;-81
2023/12/19 05:32:29;;;;;;;29.70;17.25;;;;;;;4.05;100.00;101899.09;10527769;28;20123;-82
2023/12/19 05:37:30;;;;;;;24.40;15.02;;;;;;;4.11;100.00;101904.84;10493386;28;20046;-81
2023/12/19 05:42:30;;;;;;;23.55;15.07;;;;;;;4.20;100.00;101893.47;10495471;28;20123;-82
2023/12/19 05:47:31;;;;;;;27.33;14.00;;;;;;;4.22;100.00;101907.47;10504705;28;20127;-83
2023/12/19 05:52:31;;;;;;;24.77;16.27;;;;;;;4.24;100.00;101917.22;10482800;28;20048;-81
2023/12/19 05:57:32;;;;;;;30.48;16.67;;;;;;;4.26;100.00;101923.47;10497919;28;20044;-80
2023/12/19 06:02:33;;;;;;;20.80;13.40;;;;;;;4.29;100.00;101908.97;10512479;28;20060;-79
2023/12/19 06:07:37;;;;;;;26.52;15.13;;;;;;;4.31;100.00;101884.09;10499286;28;20492;-79
2023/12/19 06:12:38;;;;;;;25.30;16.75;;;;;;;4.37;100.00;101890.72;10473251;28;20048;-80
2023/12/19 06:17:42;;;;;;;23.23;14.20;;;;;;;4.36;100.00;101867.28;10457631;28;20040;-78
2023/12/19 06:22:42;;;;;;;28.10;18.08;;;;;;;4.40;100.00;101867.66;10470428;28;20048;-79
2023/12/19 06:27:44;;;;;;;25.90;15.73;;;;;;;4.45;100.00;101842.16;10448226;28;20039;-80
2023/12/19 06:32:47;;;;;;;20.73;11.80;;;;;;;4.52;100.00;101833.22;10441998;28;20047;-79
2023/12/19 06:37:47;;;;;;;24.50;13.93;;;;;;;4.51;100.00;101814.19;10454735;28;20036;-78
2023/12/19 06:42:48;;;;;;;29.83;13.77;;;;;;;4.54;100.00;101814.44;10480278;28;20548;-77
2023/12/19 06:47:48;;;;;;;24.50;16.08;;;;;;;4.57;100.00;101823.28;10508124;28;20111;-77
2023/12/19 06:52:49;;;;;;;21.50;13.65;;;;;;;4.55;100.00;101810.16;10428358;28;20068;-78
2023/12/19 06:57:49;;;;;;;37.63;13.95;;;;;;;4.55;100.00;101820.53;10440786;28;20477;-79
2023/12/19 07:02:50;;;;;;;21.98;12.48;;;;;;;4.60;100.00;101814.06;10485887;28;20208;-80
2023/12/19 07:07:51;;;;;;;21.05;14.95;;;;;;;4.63;100.00;101809.13;10508330;28;20055;-80
2023/12/19 07:12:52;;;;;;;20.47;11.27;;;;;;;4.70;100.00;101788.16;10500181;28;20040;-80
2023/12/19 07:17:52;;;;;;;19.10;12.15;;;;;;;4.75;100.00;101779.84;10509306;28;20037;-81
2023/12/19 07:22:53;;;;;;;21.77;13.45;;;;;;;4.79;100.00;101767.28;10489275;28;20033;-82
2023/12/19 07:27:53;;;;;;;20.30;12.45;;;;;;;4.77;100.00;101784.41;10495090;28;20147;-81
2023/12/19 07:32:54;;;;;;;21.55;12.63;;;;;;;4.82;100.00;101788.31;10485675;28;20141;-81
2023/12/19 07:37:54;;;;;;;21.40;12.70;;;;;;;4.85;100.00;101778.19;10495800;28;20617;-82
2023/12/19 07:42:55;;;;;;;21.92;11.90;;;;;;;4.85;100.00;101791.16;10502584;28;20086;-81
2023/12/19 07:47:55;;;;;;;19.55;12.30;;;;;;;4.89;100.00;101781.94;10506183;28;20155;-81
2023/12/19 07:52:55;;;;;;;18.80;10.95;;;;;;;4.93;100.00;101786.63;10491522;28;20128;-81
2023/12/19 07:57:56;;;;;;;22.10;11.68;;;;;;;4.97;100.00;101769.63;10501477;28;20043;-82
2023/12/19 08:02:57;;;;;;;9.35;4.65;;;;;;;4.99;100.00;101755.09;10471321;28;20049;-81
2023/12/19 08:07:57;;;;;;;15.57;5.95;;;;;;;4.99;100.00;101771.56;10499259;28;20035;-82
2023/12/19 08:12:58;;;;;;;37.00;6.70;;;;;;;4.98;100.00;101766.25;10484748;28;20605;-81
2023/12/19 08:17:58;;;;;;;7.10;4.20;;;;;;;4.96;100.00;101745.38;10506911;28;20154;-80
2023/12/19 08:22:59;;;;;;;9.60;5.30;;;;;;;5.00;100.00;101733.56;10502277;28;20048;-84
2023/12/19 08:27:59;;;;;;;15.98;4.03;;;;;;;5.05;100.00;101732.28;10484647;28;20772;-83
2023/12/19 08:33:00;;;;;;;8.75;5.03;;;;;;;5.07;100.00;101728.13;10491772;28;20073;-82
2023/12/19 08:38:00;;;;;;;8.88;4.68;;;;;;;5.11;100.00;101739.66;10506062;28;20401;-81
2023/12/19 08:43:01;;;;;;;7.57;3.53;;;;;;;5.20;100.00;101732.63;10484471;28;20123;-81
2023/12/19 08:48:03;;;;;;;14.68;6.05;;;;;;;5.23;100.00;101704.34;10498363;28;20677;-81
2023/12/19 08:53:04;;;;;;;;;;;;;;;5.19;100.00;101691.88;10496057;28;20032;-79
2023/12/19 08:58:04;;;;;;;9.77;4.63;;;;;;;5.17;100.00;101703.81;10496204;28;19920;-81
2023/12/19 09:03:05;;;;;;;7.45;5.18;;;;;;;5.23;100.00;101708.63;10505719;28;20177;-80
2023/12/19 09:08:05;;;;;;;5.53;4.47;;;;;;;5.30;100.00;101700.56;10507220;28;20040;-80
2023/12/19 09:13:06;;;;;;;8.65;3.92;;;;;;;5.38;100.00;101691.72;10501074;28;20435;-80
2023/12/19 09:18:06;;;;;;;4.90;3.28;;;;;;;5.51;100.00;101678.03;10506794;28;20118;-78
2023/12/19 09:23:07;;;;;;;5.05;3.25;;;;;;;5.53;100.00;101692.06;10509399;28;20117;-79
2023/12/19 09:28:08;;;;;;;7.43;2.90;;;;;;;5.56;100.00;101681.91;10493633;28;20131;-82
2023/12/19 09:33:08;;;;;;;4.93;3.33;;;;;;;5.41;100.00;101691.06;10493559;28;20047;-83
2023/12/19 09:38:09;;;;;;;6.22;3.08;;;;;;;5.23;100.00;101685.28;10501728;28;20108;-82
2023/12/19 09:43:09;;;;;;;7.05;5.28;;;;;;;5.14;100.00;101680.22;10497314;28;20036;-80
2023/12/19 09:48:10;;;;;;;6.55;4.13;;;;;;;5.10;100.00;101701.50;10511748;28;20040;-82
2023/12/19 09:53:10;;;;;;;7.20;3.92;;;;;;;4.99;100.00;101695.44;10491700;28;20064;-81
2023/12/19 09:58:11;;;;;;;5.53;3.75;;;;;;;4.93;100.00;101698.41;10458334;28;20132;-82
2023/12/19 10:03:12;;;;;;;8.93;3.83;;;;;;;4.90;100.00;101699.84;10509934;28;20044;-81
2023/12/19 10:08:13;;;;;;;9.30;5.38;;;;;;;4.85;100.00;101712.41;10496820;28;20065;-80
2023/12/19 10:13:27;;;;;;;5.57;3.13;;;;;;;4.83;100.00;101709.72;10508776;28;20036;-80
2023/12/19 10:18:27;;;;;;;7.68;4.97;;;;;;;4.82;100.00;101722.53;10509197;28;20174;-79
2023/12/19 10:23:28;;;;;;;6.05;3.85;;;;;;;4.76;100.00;101704.78;10492718;28;20037;-80
2023/12/19 10:28:30;;;;;;;8.30;4.25;;;;;;;4.77;100.00;101697.91;10507953;28;20472;-81
2023/12/19 10:33:42;;;;;;;7.60;5.10;;;;;;;4.76;100.00;101694.41;10480755;28;20097;-80
2023/12/19 10:38:46;;;;;;;;;;;;;;;4.77;100.00;101684.94;10491397;28;20093;-81
2023/12/19 10:43:49;;;;;;;6.40;3.75;;;;;;;4.78;100.00;101669.50;10497872;28;19928;-82
2023/12/19 10:48:54;;;;;;;4.95;3.65;;;;;;;4.75;100.00;101656.28;10495302;28;20488;-81
2023/12/19 10:54:05;;;;;;;10.95;5.32;;;;;;;4.78;100.00;101656.53;10484272;28;20051;-82
2023/12/19 10:59:07;;;;;;;8.15;6.35;;;;;;;4.79;100.00;101632.41;10515404;28;20197;-82
2023/12/19 11:04:15;;;;;;;7.43;5.83;;;;;;;4.80;100.00;101634.22;10500931;28;20076;-83
2023/12/19 11:09:17;;;;;;;7.50;4.20;;;;;;;4.85;100.00;101639.78;10475062;28;20377;-82
2023/12/19 11:14:22;;;;;;;9.77;5.03;;;;;;;4.84;100.00;101622.41;10498453;28;20044;-83
2023/12/19 11:19:26;;;;;;;6.47;4.47;;;;;;;4.86;100.00;101613.06;10514533;28;20048;-82
2023/12/19 11:24:36;;;;;;;10.57;5.93;;;;;;;4.86;100.00;101605.28;10499359;28;20048;-82
2023/12/19 11:29:46;;;;;;;9.00;5.50;;;;;;;4.91;100.00;101569.38;10491240;28;20040;-82
2023/12/19 11:34:46;;;;;;;8.55;5.53;;;;;;;4.95;100.00;101568.84;10507673;28;20048;-83
2023/12/19 11:39:47;;;;;;;11.60;5.97;;;;;;;4.94;100.00;101573.09;10500256;28;20436;-81
2023/12/19 11:44:47;;;;;;;12.18;4.25;;;;;;;4.91;100.00;101557.28;10502950;28;20040;-82
2023/12/19 11:49:48;;;;;;;13.60;6.47;;;;;;;4.91;100.00;101544.31;10507277;28;20514;-82
2023/12/19 11:54:50;;;;;;;8.05;4.90;;;;;;;4.89;100.00;101543.28;10504375;28;20158;-83
2023/12/19 11:59:52;;;;;;;;;;;;;;;4.90;100.00;101531.25;10499306;28;20043;-83
2023/12/19 12:05:17;;;;;;;11.23;5.57;;;;;;;4.89;100.00;101538.09;10500236;28;19920;-83
2023/12/19 12:10:20;;;;;;;8.98;6.03;;;;;;;4.88;100.00;101520.72;10475981;28;20055;-83
2023/12/19 12:15:23;;;;;;;7.97;5.40;;;;;;;4.89;100.00;101519.94;10466009;28;20456;-83
2023/12/19 12:20:24;;;;;;;9.10;5.97;;;;;;;4.87;100.00;101499.88;10497448;28;20056;-82
2023/12/19 12:25:25;;;;;;;8.30;6.70;;;;;;;4.84;100.00;101496.25;10487497;28;20408;-83
2023/12/19 12:30:31;;;;;;;13.32;9.35;;;;;;;4.81;100.00;101479.50;10502282;28;20044;-83
2023/12/19 12:35:36;;;;;;;22.05;7.18;;;;;;;4.83;100.00;101463.31;10464714;28;20094;-82
2023/12/19 12:40:36;;;;;;;7.68;5.18;;;;;;;4.87;100.00;101458.34;10421491;28;20489;-81
2023/12/19 12:45:37;;;;;;;10.95;6.30;;;;;;;4.88;100.00;101460.16;10418321;28;20033;-81
2023/12/19 12:50:37;;;;;;;11.77;7.03;;;;;;;4.87;100.00;101455.78;10479386;28;20171;-81
2023/12/19 12:55:38;;;;;;;15.68;7.03;;;;;;;4.90;100.00;101443.94;10480059;28;20170;-85
2023/12/19 13:00:40;;;;;;;11.35;5.95;;;;;;;4.96;100.00;101423.66;10480429;28;20038;-83
2023/12/19 13:05:41;;;;;;;12.25;8.18;;;;;;;4.98;100.00;101419.50;10480304;28;20435;-83
2023/12/19 13:10:41;;;;;;;17.75;12.13;;;;;;;5.02;100.00;101410.28;10496571;28;20123;-85
2023/12/19 13:15:42;;;;;;;38.47;22.20;;;;;;;5.03;100.00;101398.22;10480198;28;20733;-82
2023/12/19 13:20:42;;;;;;;44.58;32.13;;;;;;;5.03;100.00;101387.81;10480876;28;20045;-82
2023/12/19 13:25:44;;;;;;;52.78;34.47;;;;;;;5.05;100.00;101382.00;10494356;28;20089;-85
2023/12/19 13:30:44;;;;;;;42.87;30.43;;;;;;;5.09;100.00;101384.03;10465786;28;20037;-83
2023/12/19 13:35:45;;;;;;;31.05;17.73;;;;;;;5.11;100.00;101379.88;10442572;28;20045;-82
2023/12/19 13:40:45;;;;;;;26.15;13.35;;;;;;;5.12;100.00;101368.72;10446822;28;20141;-82
2023/12/19 13:45:46;;;;;;;19.38;10.40;;;;;;;5.14;100.00;101376.59;10412094;28;20512;-84
2023/12/19 13:50:46;;;;;;;18.95;8.23;;;;;;;5.13;100.00;101362.72;10439386;28;20048;-82
2023/12/19 13:55:47;;;;;;;8.95;6.47;;;;;;;5.13;100.00;101367.00;10431251;28;20047;-83
2023/12/19 14:00:47;;;;;;;7.65;5.32;;;;;;;5.10;100.00;101359.91;10436586;28;20163;-82
2023/12/19 14:05:48;;;;;;;12.75;5.55;;;;;;;5.14;100.00;101354.16;10426336;28;20052;-84
2023/12/19 14:10:50;;;;;;;10.88;6.00;;;;;;;5.12;100.00;101352.22;10438589;28;20507;-81
2023/12/19 14:15:53;;;;;;;;;;;;;;;5.15;100.00;101352.47;10445333;28;20045;-82
2023/12/19 14:20:54;;;;;;;8.18;5.20;;;;;;;5.12;100.00;101347.03;10440739;28;19921;-81
2023/12/19 14:25:55;;;;;;;8.07;5.63;;;;;;;5.12;100.00;101339.25;10437224;28;20143;-83
2023/12/19 14:30:55;;;;;;;8.32;4.43;;;;;;;5.18;100.00;101329.34;10441285;28;20295;-82
2023/12/19 14:35:56;;;;;;;7.63;5.68;;;;;;;5.16;100.00;101315.34;10437891;28;20631;-83
2023/12/19 14:40:56;;;;;;;7.10;6.40;;;;;;;5.20;100.00;101312.19;10423802;28;20056;-82
2023/12/19 14:45:57;;;;;;;10.43;5.38;;;;;;;5.24;100.00;101314.25;10440517;28;20044;-82
2023/12/19 14:50:58;;;;;;;9.38;5.88;;;;;;;5.25;100.00;101305.66;10430317;28;20496;-83
2023/12/19 14:55:58;;;;;;;6.82;3.80;;;;;;;5.26;100.00;101291.00;10488551;28;20242;-84
2023/12/19 15:00:59;;;;;;;8.27;4.70;;;;;;;5.27;100.00;101291.13;10494955;28;20460;-82
2023/12/19 15:05:59;;;;;;;7.28;4.53;;;;;;;5.29;100.00;101280.88;10499697;28;20057;-82
2023/12/19 15:11:00;;;;;;;12.65;4.80;;;;;;;5.34;100.00;101270.81;10501634;28;20122;-80
2023/12/19 15:16:01;;;;;;;12.60;4.45;;;;;;;5.40;100.00;101263.47;10494651;28;20065;-83
2023/12/19 15:21:04;;;;;;;20.02;16.10;;;;;;;5.37;100.00;101253.78;10456196;28;20040;-81
2023/12/19 15:26:05;;;;;;;11.55;5.30;;;;;;;5.42;100.00;101243.72;10448691;28;20132;-79
2023/12/19 15:31:06;;;;;;;11.10;4.35;;;;;;;5.48;100.00;101256.28;10509254;28;20060;-79
2023/12/19 15:36:16;;;;;;;5.85;3.80;;;;;;;5.48;100.00;101248.50;10501252;28;20444;-80
2023/12/19 15:41:20;;;;;;;6.70;3.10;;;;;;;5.52;100.00;101247.94;10484396;28;20123;-80
2023/12/19 15:46:20;;;;;;;7.93;3.75;;;;;;;5.53;100.00;101244.53;10498527;28;20122;-81
2023/12/19 15:51:21;;;;;;;6.90;4.20;;;;;;;5.56;100.00;101242.19;10498611;28;20479;-82
2023/12/19 15:56:25;;;;;;;12.73;8.98;;;;;;;5.57;100.00;101234.47;10504436;28;20123;-81
2023/12/19 16:01:27;;;;;;;12.95;10.23;;;;;;;5.61;100.00;101222.66;10493721;28;20479;-81
2023/12/19 16:06:27;;;;;;;15.87;10.20;;;;;;;5.63;100.00;101227.94;10490346;28;20478;-80
2023/12/19 16:11:28;;;;;;;13.60;9.25;;;;;;;5.65;100.00;101215.97;10499690;28;20044;-80
2023/12/19 16:16:32;;;;;;;14.57;10.70;;;;;;;5.65;100.00;101210.78;10502079;28;20365;-80
2023/12/19 16:21:33;;;;;;;14.05;10.60;;;;;;;5.67;100.00;101207.50;10501325;28;20488;-80
2023/12/19 16:26:33;;;;;;;88.38;64.57;;;;;;;5.68;100.00;101211.00;10499133;28;20094;-81
2023/12/19 16:31:36;;;;;;;21.80;14.38;;;;;;;5.72;100.00;101210.44;10497826;28;20776;-80
2023/12/19 16:36:37;;;;;;;;;;;;;;;5.72;100.00;101208.75;10500802;28;20106;-80
2023/12/19 16:41:37;;;;;;;19.65;12.02;;;;;;;5.77;100.00;101201.28;10502166;28;19921;-80
2023/12/19 16:46:38;;;;;;;21.15;16.13;;;;;;;5.76;100.00;101202.06;10499695;28;20811;-80
2023/12/19 16:51:39;;;;;;;18.05;12.82;;;;;;;5.80;100.00;101205.81;10494325;28;20174;-79
2023/12/19 16:56:39;;;;;;;20.02;15.77;;;;;;;5.83;100.00;101201.72;10438069;28;20120;-81
2023/12/19 17:01:40;;;;;;;18.42;14.40;;;;;;;5.83;100.00;101206.91;10441238;28;20069;-81
2023/12/19 17:06:44;;;;;;;18.33;14.32;;;;;;;5.88;100.00;101209.88;10491177;28;20036;-81
2023/12/19 17:11:44;;;;;;;19.38;13.77;;;;;;;5.90;100.00;101196.97;10505918;28;20036;-82
2023/12/19 17:16:45;;;;;;;17.35;13.18;;;;;;;5.95;100.00;101187.81;10490653;28;20437;-82
2023/12/19 17:21:45;;;;;;;24.20;14.32;;;;;;;5.94;100.00;101201.59;10504781;28;20073;-82
2023/12/19 17:26:46;;;;;;;17.60;15.10;;;;;;;5.91;100.00;101196.16;10490141;28;20126;-82
2023/12/19 17:31:47;;;;;;;22.40;16.08;;;;;;;5.94;100.00;101206.78;10503891;28;20479;-82
2023/12/19 17:36:47;;;;;;;23.30;14.95;;;;;;;5.95;100.00;101193.91;10496650;28;20547;-81
2023/12/19 17:41:48;;;;;;;21.00;16.00;;;;;;;5.96;100.00;101189.59;10496814;28;20052;-81
2023/12/19 17:46:48;;;;;;;24.50;17.73;;;;;;;5.98;100.00;101196.75;10502259;28;20036;-81
2023/12/19 17:51:49;;;;;;;24.63;17.15;;;;;;;5.99;100.00;101188.16;10495118;28;20037;-80
2023/12/19 17:56:49;;;;;;;29.88;18.73;;;;;;;5.98;100.00;101199.34;10503124;28;20123;-80
2023/12/19 18:01:50;;;;;;;22.90;17.17;;;;;;;5.99;100.00;101198.53;10504512;28;20078;-80
2023/12/19 18:06:50;;;;;;;25.52;18.67;;;;;;;5.98;100.00;101194.13;10499712;28;20479;-80
2023/12/19 18:11:57;;;;;;;27.45;19.73;;;;;;;5.98;100.00;101193.22;10493436;28;20147;-80
2023/12/19 18:17:02;;;;;;;27.95;19.98;;;;;;;5.99;100.00;101208.00;10503502;28;20041;-80
2023/12/19 18:22:03;;;;;;;28.30;19.75;;;;;;;6.00;100.00;101202.97;10491663;28;20471;-79
2023/12/19 18:27:04;;;;;;;30.98;20.95;;;;;;;6.01;100.00;101212.59;10502889;28;20036;-80
2023/12/19 18:32:05;;;;;;;28.35;17.92;;;;;;;6.02;100.00;101217.00;10493556;28;20048;-80
2023/12/19 18:37:06;;;;;;;29.43;19.90;;;;;;;6.01;100.00;101211.66;10502122;28;20024;-80
2023/12/19 18:42:06;;;;;;;30.83;23.33;;;;;;;6.01;100.00;101216.84;10486451;28;20063;-82
2023/12/19 18:47:07;;;;;;;43.90;23.55;;;;;;;6.02;100.00;101224.78;10493587;28;20882;-81
2023/12/19 18:52:08;;;;;;;20.07;15.73;;;;;;;6.05;100.00;101215.41;10489395;28;20083;-80
2023/12/19 18:57:08;;;;;;;34.30;21.83;;;;;;;6.05;100.00;101218.88;10518945;28;20170;-81
2023/12/19 19:02:09;;;;;;;32.97;22.00;;;;;;;6.06;100.00;101227.59;10500130;28;20543;-81
2023/12/19 19:07:09;;;;;;;32.55;23.63;;;;;;;6.07;100.00;101245.00;10517008;28;20047;-81
2023/12/19 19:12:11;;;;;;;37.22;22.98;;;;;;;6.08;100.00;101232.09;10509093;28;20064;-80
2023/12/19 19:17:12;;;;;;;37.75;29.17;;;;;;;6.07;100.00;101238.09;10503096;28;20142;-81
2023/12/19 19:22:13;;;;;;;44.83;27.35;;;;;;;6.10;100.00;101232.22;10499845;28;20147;-80
2023/12/19 19:27:13;;;;;;;41.92;26.52;;;;;;;6.09;100.00;101243.41;10506048;28;20130;-78
2023/12/19 19:32:15;;;;;;;41.30;27.75;;;;;;;6.11;100.00;101236.63;10510423;28;20124;-83
2023/12/19 19:37:15;;;;;;;40.93;30.57;;;;;;;6.11;100.00;101224.53;10479888;28;20071;-83
2023/12/19 19:42:16;;;;;;;54.55;34.58;;;;;;;6.13;100.00;101238.53;10499514;28;20552;-81
2023/12/19 19:47:16;;;;;;;46.33;30.20;;;;;;;6.14;100.00;101227.34;10504676;28;20052;-80
2023/12/19 19:52:18;;;;;;;54.35;34.33;;;;;;;6.11;100.00;101234.03;10492191;28;20127;-83
2023/12/19 19:57:24;;;;;;;58.20;33.58;;;;;;;6.10;100.00;101224.44;10481369;28;20475;-83
2023/12/19 20:02:35;;;;;;;56.45;37.38;;;;;;;6.11;100.00;101231.44;10473565;28;20051;-82
2023/12/19 20:08:01;;;;;;;61.83;39.60;;;;;;;6.09;100.00;101231.31;10475323;28;20123;-81
2023/12/19 20:13:18;;;;;;;55.05;38.95;;;;;;;6.12;100.00;101238.44;10491628;28;20032;-80
2023/12/19 20:18:31;;;;;;;60.42;40.08;;;;;;;6.10;100.00;101246.09;10502319;28;20071;-84
2023/12/19 20:23:31;;;;;;;66.97;42.92;;;;;;;6.11;100.00;101250.50;10488442;28;20028;-81
2023/12/19 20:28:32;;;;;;;67.85;39.70;;;;;;;6.10;100.00;101251.31;10499316;28;20119;-83
2023/12/19 20:33:32;;;;;;;56.83;39.85;;;;;;;6.16;100.00;101263.84;10506954;28;20185;-82
2023/12/19 20:38:33;;;;;;;60.55;39.58;;;;;;;6.15;100.00;101255.13;10505188;28;20050;-82
2023/12/19 20:43:33;;;;;;;62.53;38.40;;;;;;;6.15;100.00;101262.03;10498828;28;20039;-82
2023/12/19 20:48:35;;;;;;;65.63;39.45;;;;;;;6.16;100.00;101250.84;10504487;28;20753;-82
2023/12/19 20:53:35;;;;;;;68.00;42.33;;;;;;;6.15;100.00;101260.31;10498744;28;20040;-82
2023/12/19 20:58:36;;;;;;;61.47;40.08;;;;;;;6.20;100.00;101259.75;10507746;28;20119;-81
2023/12/19 21:03:37;;;;;;;63.90;40.03;;;;;;;6.17;100.00;101271.75;10491234;28;20523;-82
2023/12/19 21:08:39;;;;;;;65.93;40.47;;;;;;;6.16;100.00;101262.13;10495379;28;20048;-82
2023/12/19 21:13:39;;;;;;;65.88;44.33;;;;;;;6.17;100.00;101253.53;10478586;28;20048;-80
2023/12/19 21:18:40;;;;;;;65.50;41.70;;;;;;;6.18;100.00;101249.25;10489752;28;20123;-82
2023/12/19 21:23:41;;;;;;;69.03;45.47;;;;;;;6.19;100.00;101247.56;10503145;28;20044;-82
2023/12/19 21:28:42;;;;;;;73.57;50.60;;;;;;;6.18;100.00;101241.47;10494543;28;20552;-82
2023/12/19 21:33:43;;;;;;;77.23;50.17;;;;;;;6.17;100.00;101242.25;10514356;28;20068;-81
2023/12/19 21:38:44;;;;;;;69.80;45.77;;;;;;;6.19;100.00;101234.56;10504811;28;20048;-82
2023/12/19 21:43:44;;;;;;;75.45;49.40;;;;;;;6.13;100.00;101241.13;10505089;28;20123;-82
2023/12/19 21:48:45;;;;;;;79.10;48.83;;;;;;;6.11;100.00;101245.31;10504860;28;20044;-82
2023/12/19 21:53:46;;;;;;;74.93;48.97;;;;;;;6.13;100.00;101240.25;10505486;28;20538;-82
2023/12/19 21:58:46;;;;;;;71.90;49.85;;;;;;;6.14;100.00;101229.06;10506299;28;20078;-82
2023/12/19 22:03:47;;;;;;;84.43;49.17;;;;;;;6.14;100.00;101229.06;10510136;28;20119;-81
2023/12/19 22:08:47;;;;;;;71.88;50.03;;;;;;;6.14;100.00;101214.34;10493744;28;20438;-81
2023/12/19 22:13:48;;;;;;;84.97;50.72;;;;;;;6.16;100.00;101223.16;10511731;28;20178;-81
2023/12/19 22:18:48;;;;;;;73.28;50.17;;;;;;;6.17;100.00;101222.34;10495541;28;20124;-81
2023/12/19 22:23:50;;;;;;;85.13;51.85;;;;;;;6.20;100.00;101218.16;10504673;28;20143;-81
2023/12/19 22:28:50;;;;;;;82.97;48.80;;;;;;;6.21;100.00;101226.09;10477669;28;20036;-81
2023/12/19 22:33:51;;;;;;;72.60;45.20;;;;;;;6.20;100.00;101223.38;10481348;28;20044;-81
2023/12/19 22:38:51;;;;;;;71.35;43.42;;;;;;;6.20;100.00;101220.78;10493687;28;20066;-82
2023/12/19 22:43:52;;;;;;;63.17;37.95;;;;;;;6.20;100.00;101232.09;10509974;28;20115;-82